createdAt,value
2023-04-14T00:00:04.941Z,99827.31
2023-04-14T00:02:41.261Z,99843.66
2023-04-14T00:05:09.381Z,99853.41
2023-04-14T00:07:36.994Z,99863.75
2023-04-14T00:10:04.847Z,99872.75
2023-04-14T00:12:32.033Z,99883.53
2023-04-14T00:14:59.242Z,99891.75
2023-04-14T00:17:26.449Z,99901.84
2023-04-14T00:19:55.444Z,99908.66
2023-04-14T00:22:22.958Z,99905.56
2023-04-14T00:24:50.259Z,99920.75
2023-04-14T00:27:17.458Z,99917.56
2023-04-14T00:29:45.026Z,99926.78
2023-04-14T00:32:12.746Z,99923.50
2023-04-14T00:34:40.168Z,99928.47
2023-04-14T00:37:08.802Z,99927.53
2023-04-14T00:39:36.262Z,99934.78
2023-04-14T00:42:04.137Z,99940.59
2023-04-14T00:44:31.804Z,99944.47
2023-04-14T00:47:01.590Z,99936.97
2023-04-14T00:49:29.296Z,99943.88
2023-04-14T00:51:56.886Z,99948.59
2023-04-14T00:54:25.832Z,99947.81
2023-04-14T00:56:54.596Z,99949.38
2023-04-14T00:59:22.858Z,99956.25
2023-04-14T01:01:50.171Z,99959.22
2023-04-14T01:04:21.274Z,99964.16
2023-04-14T01:06:48.728Z,99958.34
2023-04-14T01:09:16.417Z,99974.75
2023-04-14T01:11:52.879Z,99968.72
2023-04-14T01:14:33.188Z,99972.81
2023-04-14T01:17:09.257Z,99963.56
2023-04-14T01:19:53.147Z,99972.41
2023-04-14T01:22:26.252Z,99971.78
2023-04-14T01:25:12.900Z,99974.53
2023-04-14T01:27:47.590Z,99978.13
2023-04-14T01:30:41.957Z,99987.28
2023-04-14T01:33:18.190Z,99985.72
2023-04-14T01:35:51.208Z,100000.41
2023-04-14T01:38:23.915Z,100003.72
2023-04-14T01:40:57.078Z,100013.34
2023-04-14T01:43:28.423Z,100018.88
2023-04-14T01:46:00.776Z,100025.31
2023-04-14T01:48:32.199Z,100028.84
2023-04-14T01:51:02.108Z,100032.31
2023-04-14T01:53:32.397Z,100040.50
2023-04-14T01:56:00.831Z,100047.72
2023-04-14T01:58:29.903Z,100061.88
2023-04-14T02:00:58.797Z,100073.81
2023-04-14T02:03:27.944Z,100062.19
2023-04-14T02:05:57.215Z,100082.88
2023-04-14T02:08:25.639Z,100099.25
2023-04-14T02:10:54.615Z,100112.88
2023-04-14T02:13:23.862Z,100127.06
2023-04-14T02:15:52.114Z,100137.56
2023-04-14T02:18:23.014Z,100150.88
2023-04-14T02:20:52.598Z,100149.78
2023-04-14T02:23:21.405Z,100173.50
2023-04-14T02:25:54.157Z,100194.41
2023-04-14T02:28:27.889Z,100214.16
2023-04-14T02:30:57.790Z,100223.69
2023-04-14T02:33:34.096Z,100235.66
2023-04-14T02:36:04.154Z,100256.22
2023-04-14T02:38:36.657Z,100268.00
2023-04-14T02:41:08.519Z,100276.72
2023-04-14T02:43:44.006Z,100291.03
2023-04-14T02:46:16.438Z,100326.88
2023-04-14T02:48:46.588Z,100317.47
2023-04-14T02:51:15.958Z,100334.38
2023-04-14T02:53:45.756Z,100343.06
2023-04-14T02:56:39.580Z,100368.19
2023-04-14T02:59:07.880Z,100392.72
2023-04-14T03:01:39.220Z,100416.69
2023-04-14T03:04:07.329Z,100427.50
2023-04-14T03:06:37.730Z,100450.41
2023-04-14T03:09:07.526Z,100469.34
2023-04-14T03:11:36.825Z,100486.25
2023-04-14T03:14:05.801Z,100511.84
2023-04-14T03:16:33.696Z,100530.75
2023-04-14T03:19:03.712Z,100548.09
2023-04-14T03:21:32.288Z,100574.06
2023-04-14T03:24:00.267Z,100587.81
2023-04-14T03:26:32.123Z,100618.06
2023-04-14T03:29:00.994Z,100665.25
2023-04-14T03:31:31.996Z,100699.50
2023-04-14T03:34:02.173Z,100704.25
2023-04-14T03:36:36.506Z,100722.78
2023-04-14T03:39:05.758Z,100792.78
2023-04-14T03:41:40.090Z,100813.25
2023-04-14T03:44:10.246Z,100834.50
2023-04-14T03:46:37.455Z,100873.81
2023-04-14T03:49:08.095Z,100906.84
2023-04-14T03:51:38.990Z,100943.53
2023-04-14T03:54:07.625Z,101036.69
2023-04-14T03:56:38.186Z,101081.16
2023-04-14T03:59:07.815Z,101128.44
2023-04-14T04:01:39.102Z,101168.84
2023-04-14T04:04:08.233Z,101204.22
2023-04-14T04:06:35.906Z,101227.22
2023-04-14T04:09:05.023Z,101271.94
2023-04-14T04:11:33.925Z,101281.34
2023-04-14T04:14:04.154Z,101309.63
2023-04-14T04:16:35.286Z,101337.22
2023-04-14T04:19:05.733Z,101353.13
2023-04-14T04:21:35.276Z,101388.06
2023-04-14T04:24:04.852Z,101405.47
2023-04-14T04:26:32.557Z,101437.75
2023-04-14T04:29:03.166Z,101460.53
2023-04-14T04:31:32.257Z,101490.13
2023-04-14T04:34:00.152Z,101517.19
2023-04-14T04:36:28.382Z,101537.69
2023-04-14T04:38:56.589Z,101553.34
2023-04-14T04:41:25.118Z,101569.88
2023-04-14T04:43:53.222Z,101599.84
2023-04-14T04:46:37.920Z,101627.31
2023-04-14T04:49:05.328Z,101637.78
2023-04-14T04:51:32.601Z,101657.09
2023-04-14T04:53:59.989Z,101668.72
2023-04-14T04:56:27.229Z,101686.44
2023-04-14T04:58:54.518Z,101693.06
2023-04-14T05:01:21.817Z,101701.44
2023-04-14T05:03:50.679Z,101716.72
2023-04-14T05:06:17.978Z,101724.59
2023-04-14T05:08:45.480Z,101742.25
2023-04-14T05:11:12.664Z,101752.47
2023-04-14T05:13:40.076Z,101759.91
2023-04-14T05:16:09.245Z,101773.69
2023-04-14T05:18:37.169Z,101775.59
2023-04-14T05:21:07.455Z,101793.09
2023-04-14T05:23:36.488Z,101811.28
2023-04-14T05:26:27.111Z,101814.41
2023-04-14T05:28:53.021Z,101830.56
2023-04-14T05:31:20.426Z,101836.84
2023-04-14T05:33:47.939Z,101840.72
2023-04-14T05:36:16.746Z,101845.03
2023-04-14T05:38:44.105Z,101859.63
2023-04-14T05:41:11.446Z,101873.03
2023-04-14T05:43:38.834Z,101876.56
2023-04-14T05:46:06.198Z,101890.50
2023-04-14T05:48:33.760Z,101911.97
2023-04-14T05:51:01.106Z,101921.75
2023-04-14T05:53:29.788Z,101935.69
2023-04-14T05:55:57.051Z,101960.09
2023-04-14T05:58:24.472Z,101961.50
2023-04-14T06:00:51.723Z,101961.50
2023-04-14T06:03:19.253Z,101961.63
2023-04-14T06:05:47.081Z,101962.63
2023-04-14T06:08:14.294Z,101960.63
2023-04-14T06:10:42.928Z,101969.84
2023-04-14T06:13:10.157Z,101977.13
2023-04-14T06:15:37.413Z,101973.28
2023-04-14T06:18:04.745Z,101966.69
2023-04-14T06:20:32.684Z,101971.69
2023-04-14T06:23:00.233Z,101970.31
2023-04-14T06:25:27.434Z,101945.16
2023-04-14T06:27:56.083Z,101946.41
2023-04-14T06:30:23.216Z,101930.44
2023-04-14T06:32:50.432Z,101929.44
2023-04-14T06:35:31.801Z,101902.00
2023-04-14T06:37:59.596Z,101866.97
2023-04-14T06:40:27.086Z,101851.25
2023-04-14T06:42:55.802Z,101816.63
2023-04-14T06:45:23.039Z,101803.69
2023-04-14T06:47:50.347Z,101782.53
2023-04-14T06:50:17.945Z,101761.31
2023-04-14T06:52:45.327Z,101715.13
2023-04-14T06:55:12.712Z,101662.59
2023-04-14T06:57:39.990Z,101603.31
2023-04-14T07:00:10.166Z,101544.81
2023-04-14T07:02:37.487Z,101475.19
2023-04-14T07:05:05.451Z,101405.56
2023-04-14T07:07:34.724Z,101330.34
2023-04-14T07:10:01.951Z,101249.09
2023-04-14T07:12:29.351Z,101142.97
2023-04-14T07:14:56.485Z,101033.13
2023-04-14T07:17:25.599Z,100907.41
2023-04-14T07:19:52.919Z,100783.34
2023-04-14T07:22:20.195Z,100613.91
2023-04-14T07:24:47.350Z,100465.22
2023-04-14T07:27:14.601Z,100350.22
2023-04-14T07:29:42.231Z,100251.47
2023-04-14T07:32:09.708Z,100175.28
2023-04-14T07:34:38.236Z,100106.28
2023-04-14T07:37:05.740Z,100048.34
2023-04-14T07:39:33.078Z,99997.91
2023-04-14T07:42:00.604Z,99956.78
2023-04-14T07:44:27.954Z,99931.53
2023-04-14T07:46:55.354Z,99905.72
2023-04-14T07:49:22.529Z,99886.47
2023-04-14T07:51:51.210Z,99880.44
2023-04-14T07:54:18.533Z,99871.28
2023-04-14T07:56:45.810Z,99876.44
2023-04-14T07:59:13.031Z,99877.25
2023-04-14T08:01:40.404Z,99879.09
2023-04-14T08:04:08.065Z,99899.59
2023-04-14T08:06:35.483Z,99894.69
2023-04-14T08:09:04.280Z,99906.78
2023-04-14T08:11:31.582Z,99918.53
2023-04-14T08:13:58.765Z,99929.81
2023-04-14T08:16:26.236Z,99939.41
2023-04-14T08:18:55.038Z,99958.09
2023-04-14T08:21:23.711Z,99975.13
2023-04-14T08:23:51.114Z,99988.38
2023-04-14T08:26:19.828Z,99994.94
2023-04-14T08:28:47.046Z,100013.25
2023-04-14T08:31:14.302Z,100014.81
2023-04-14T08:33:41.502Z,100052.47
2023-04-14T08:36:08.876Z,100073.06
2023-04-14T08:38:36.102Z,100091.81
2023-04-14T08:41:07.154Z,100140.91
2023-04-14T08:43:36.015Z,100135.19
2023-04-14T08:46:04.437Z,100128.44
2023-04-14T08:48:35.353Z,100148.13
2023-04-14T08:51:10.051Z,100158.06
2023-04-14T08:53:40.515Z,100160.53
2023-04-14T08:56:07.944Z,100175.72
2023-04-14T08:58:36.766Z,100176.06
2023-04-14T09:01:04.687Z,100179.50
2023-04-14T09:03:32.586Z,100185.22
2023-04-14T09:06:00.263Z,100205.56
2023-04-14T09:08:28.123Z,100229.78
2023-04-14T09:10:55.294Z,100234.75
2023-04-14T09:13:22.697Z,100267.16
2023-04-14T09:15:51.341Z,100263.94
2023-04-14T09:18:18.586Z,100278.06
2023-04-14T09:20:46.763Z,100318.59
2023-04-14T09:23:15.086Z,100313.63
2023-04-14T09:25:42.999Z,100338.00
2023-04-14T09:28:10.948Z,100352.09
2023-04-14T09:30:38.285Z,100355.19
2023-04-14T09:33:07.851Z,100338.13
2023-04-14T09:35:43.957Z,100370.09
2023-04-14T09:38:11.270Z,100400.78
2023-04-14T09:40:38.780Z,100497.97
2023-04-14T09:43:06.169Z,100596.94
2023-04-14T09:45:41.256Z,100628.81
2023-04-14T09:48:10.833Z,100661.81
2023-04-14T09:50:56.632Z,100757.69
2023-04-14T09:53:28.155Z,100858.34
2023-04-14T09:55:55.729Z,100892.78
2023-04-14T09:58:26.134Z,100845.19
2023-04-14T10:00:54.819Z,100906.06
2023-04-14T10:03:34.263Z,101101.09
2023-04-14T10:06:02.446Z,101160.16
2023-04-14T10:08:34.787Z,101177.19
2023-04-14T10:11:14.447Z,101171.59
2023-04-14T10:13:41.739Z,101182.66
2023-04-14T10:16:09.123Z,101165.63
2023-04-14T10:18:38.975Z,101167.16
2023-04-14T10:21:07.456Z,101166.63
2023-04-14T10:23:36.303Z,101155.88
2023-04-14T10:26:05.042Z,101163.00
2023-04-14T10:28:34.435Z,101163.56
2023-04-14T10:31:04.700Z,101175.66
2023-04-14T10:33:32.104Z,101174.13
2023-04-14T10:36:01.552Z,101163.19
2023-04-14T10:38:42.470Z,101159.41
2023-04-14T10:41:10.799Z,101134.97
2023-04-14T10:43:38.239Z,101156.09
2023-04-14T10:46:07.253Z,101156.34
2023-04-14T10:48:38.201Z,101150.28
2023-04-14T10:51:08.776Z,101138.88
2023-04-14T10:53:37.471Z,101133.09
2023-04-14T10:56:05.644Z,101110.44
2023-04-14T10:58:35.754Z,101106.81
2023-04-14T11:01:21.406Z,101100.50
2023-04-14T11:03:48.896Z,101124.28
2023-04-14T11:06:52.890Z,101140.72
2023-04-14T11:09:32.684Z,101136.91
2023-04-14T11:12:04.535Z,101132.84
2023-04-14T11:14:33.025Z,101132.66
2023-04-14T11:17:03.982Z,101138.19
2023-04-14T11:19:32.592Z,101128.53
2023-04-14T11:22:01.320Z,101105.19
2023-04-14T11:24:29.030Z,101076.31
2023-04-14T11:26:57.050Z,101090.44
2023-04-14T11:29:24.267Z,101108.59
2023-04-14T11:32:02.625Z,101116.56
2023-04-14T11:34:29.925Z,101105.56
2023-04-14T11:36:57.267Z,101085.50
2023-04-14T11:39:25.994Z,101082.69
2023-04-14T11:41:53.202Z,101082.13
2023-04-14T11:44:20.935Z,101075.13
2023-04-14T11:46:49.617Z,101053.94
2023-04-14T11:49:16.843Z,101030.84
2023-04-14T11:51:44.201Z,101057.97
2023-04-14T11:54:12.360Z,101062.47
2023-04-14T11:56:41.411Z,101067.41
2023-04-14T11:59:08.798Z,101062.81
2023-04-14T12:01:36.008Z,101052.38
2023-04-14T12:04:03.565Z,101041.47
2023-04-14T12:06:35.591Z,101029.72
2023-04-14T12:09:08.148Z,101026.59
2023-04-14T12:11:35.561Z,101047.81
2023-04-14T12:14:05.002Z,101068.91
2023-04-14T12:16:32.738Z,101090.16
2023-04-14T12:19:00.362Z,101083.59
2023-04-14T12:21:27.958Z,101067.22
2023-04-14T12:23:55.177Z,101021.84
2023-04-14T12:26:22.477Z,101016.44
2023-04-14T12:28:56.288Z,101008.13
2023-04-14T12:31:28.734Z,101039.09
2023-04-14T12:34:00.417Z,101059.03
2023-04-14T12:36:45.053Z,101054.28
2023-04-14T12:39:15.091Z,101022.19
2023-04-14T12:41:42.419Z,101037.91
2023-04-14T12:44:15.321Z,101038.63
2023-04-14T12:46:47.438Z,101020.16
2023-04-14T12:49:34.942Z,101001.13
2023-04-14T12:52:02.310Z,100991.72
2023-04-14T12:54:48.165Z,100997.78
2023-04-14T12:57:15.477Z,101021.94
2023-04-14T12:59:42.660Z,101031.81
2023-04-14T13:02:11.399Z,101016.44
2023-04-14T13:04:38.776Z,100997.25
2023-04-14T13:07:06.401Z,101002.66
2023-04-14T13:09:33.600Z,101001.88
2023-04-14T13:12:00.794Z,101003.03
2023-04-14T13:14:27.991Z,100985.47
2023-04-14T13:16:56.122Z,101001.00
2023-04-14T13:19:24.959Z,100975.91
2023-04-14T13:21:52.162Z,100959.34
2023-04-14T13:24:19.449Z,100959.84
2023-04-14T13:26:46.719Z,100945.81
2023-04-14T13:29:13.930Z,100942.78
2023-04-14T13:31:41.462Z,100971.56
2023-04-14T13:34:08.796Z,100984.78
2023-04-14T13:36:37.620Z,100993.03
2023-04-14T13:39:05.023Z,101006.19
2023-04-14T13:41:32.296Z,101001.56
2023-04-14T13:43:59.640Z,101007.25
2023-04-14T13:46:26.974Z,101020.78
2023-04-14T13:48:54.258Z,101025.00
2023-04-14T13:51:21.774Z,101034.75
2023-04-14T13:53:50.404Z,101034.63
2023-04-14T13:56:17.704Z,101028.06
2023-04-14T13:58:44.913Z,101022.41
2023-04-14T14:01:12.381Z,101015.41
2023-04-14T14:03:41.216Z,101020.75
2023-04-14T14:06:08.936Z,101027.91
2023-04-14T14:08:36.226Z,100998.66
2023-04-14T14:11:06.278Z,100959.38
2023-04-14T14:13:34.621Z,100951.31
2023-04-14T14:16:02.384Z,100930.44
2023-04-14T14:18:29.675Z,100932.31
2023-04-14T14:20:57.257Z,100932.06
2023-04-14T14:23:25.352Z,100922.63
2023-04-14T14:25:53.903Z,100930.28
2023-04-14T14:28:23.822Z,100935.47
2023-04-14T14:30:51.155Z,100933.72
2023-04-14T14:33:18.378Z,100960.09
2023-04-14T14:35:46.782Z,100962.84
2023-04-14T14:38:14.362Z,100982.31
2023-04-14T14:40:41.569Z,100985.38
2023-04-14T14:43:08.760Z,100990.63
2023-04-14T14:45:37.420Z,100999.75
2023-04-14T14:48:04.921Z,100996.38
2023-04-14T14:50:32.150Z,100990.28
2023-04-14T14:52:59.290Z,101003.69
2023-04-14T14:55:26.584Z,101004.31
2023-04-14T14:57:53.732Z,101007.94
2023-04-14T15:00:20.979Z,101013.53
2023-04-14T15:02:50.015Z,101008.28
2023-04-14T15:05:17.808Z,101020.25
2023-04-14T15:07:45.069Z,101004.41
2023-04-14T15:10:12.262Z,100982.69
2023-04-14T15:12:39.489Z,100965.50
2023-04-14T15:15:07.727Z,100943.16
2023-04-14T15:17:35.005Z,100935.19
2023-04-14T15:20:04.017Z,100940.59
2023-04-14T15:22:31.286Z,100943.66
2023-04-14T15:24:58.601Z,100933.31
2023-04-14T15:27:25.791Z,100928.72
2023-04-14T15:29:53.055Z,100939.28
2023-04-14T15:32:20.537Z,100934.66
2023-04-14T15:34:47.982Z,100922.03
2023-04-14T15:37:16.553Z,100921.19
2023-04-14T15:39:43.804Z,100937.56
2023-04-14T15:42:10.972Z,100928.16
2023-04-14T15:44:38.328Z,100917.91
2023-04-14T15:47:05.488Z,100917.88
2023-04-14T15:49:32.670Z,100918.16
2023-04-14T15:51:59.856Z,100906.94
2023-04-14T15:54:29.115Z,100908.03
2023-04-14T15:56:56.293Z,100914.78
2023-04-14T15:59:23.615Z,100919.47
2023-04-14T16:01:50.996Z,100941.50
2023-04-14T16:04:18.559Z,100935.22
2023-04-14T16:06:46.766Z,100917.00
2023-04-14T16:09:15.121Z,100931.78
2023-04-14T16:11:43.670Z,100930.81
2023-04-14T16:14:11.214Z,100934.56
2023-04-14T16:16:38.564Z,100974.47
2023-04-14T16:19:05.968Z,100992.97
2023-04-14T16:21:33.165Z,100989.00
2023-04-14T16:24:00.701Z,100996.97
2023-04-14T16:26:28.036Z,100980.59
2023-04-14T16:28:56.734Z,100968.44
2023-04-14T16:31:23.947Z,100971.53
2023-04-14T16:33:51.215Z,100987.81
2023-04-14T16:36:18.512Z,100965.44
2023-04-14T16:38:45.752Z,100972.38
2023-04-14T16:41:12.953Z,100966.22
2023-04-14T16:43:40.210Z,100985.75
2023-04-14T16:46:08.965Z,100995.28
2023-04-14T16:48:36.258Z,101004.78
2023-04-14T16:51:05.626Z,101014.19
2023-04-14T16:53:33.644Z,101023.28
2023-04-14T16:56:03.874Z,101021.44
2023-04-14T16:58:31.576Z,101020.66
2023-04-14T17:00:59.156Z,101021.88
2023-04-14T17:03:28.265Z,101031.72
2023-04-14T17:05:55.653Z,101028.28
2023-04-14T17:08:22.869Z,101010.97
2023-04-14T17:10:50.185Z,101012.91
2023-04-14T17:13:18.215Z,101007.91
2023-04-14T17:15:45.717Z,101007.34
2023-04-14T17:18:13.722Z,101003.34
2023-04-14T17:20:42.636Z,100994.44
2023-04-14T17:23:09.973Z,100995.84
2023-04-14T17:25:37.619Z,100998.78
2023-04-14T17:28:05.276Z,101001.28
2023-04-14T17:30:32.987Z,101006.22
2023-04-14T17:33:02.683Z,101010.06
2023-04-14T17:35:30.562Z,101035.06
2023-04-14T17:37:59.333Z,101041.09
2023-04-14T17:40:27.136Z,101048.91
2023-04-14T17:42:54.857Z,101041.56
2023-04-14T17:45:22.178Z,101049.22
2023-04-14T17:47:50.004Z,101051.56
2023-04-14T17:50:17.440Z,101051.66
2023-04-14T17:52:45.522Z,101053.75
2023-04-14T17:55:14.341Z,101050.53
2023-04-14T17:57:41.986Z,101048.97
2023-04-14T18:00:10.465Z,101034.63
2023-04-14T18:02:40.993Z,101033.22
2023-04-14T18:05:09.338Z,101023.31
2023-04-14T18:07:36.655Z,101017.50
2023-04-14T18:10:04.828Z,100997.69
2023-04-14T18:12:33.583Z,100986.88
2023-04-14T18:15:00.776Z,100981.81
2023-04-14T18:17:27.991Z,100968.66
2023-04-14T18:19:56.554Z,100953.03
2023-04-14T18:22:24.644Z,100924.28
2023-04-14T18:24:52.461Z,100941.16
2023-04-14T18:29:51.542Z,100894.56
2023-04-14T18:32:20.757Z,100860.34
2023-04-14T18:34:48.619Z,100834.69
2023-04-14T18:37:15.881Z,100826.88
2023-04-14T18:39:43.475Z,100825.72
2023-04-14T18:42:10.703Z,100803.38
2023-04-14T18:44:38.218Z,100807.91
2023-04-14T18:47:07.169Z,100808.59
2023-04-14T18:49:34.423Z,100778.44
2023-04-14T18:52:01.624Z,100768.16
2023-04-14T18:54:28.968Z,100739.19
2023-04-14T18:56:56.680Z,100724.16
2023-04-14T18:59:24.729Z,100730.66
2023-04-14T19:01:52.020Z,100710.44
2023-04-14T19:04:20.978Z,100687.19
2023-04-14T19:06:48.331Z,100684.59
2023-04-14T19:09:16.102Z,100670.69
2023-04-14T19:11:43.289Z,100653.00
2023-04-14T19:14:10.512Z,100667.44
2023-04-14T19:16:37.758Z,100663.81
2023-04-14T19:19:05.099Z,100664.47
2023-04-14T19:21:33.910Z,100662.03
2023-04-14T19:24:01.242Z,100642.28
2023-04-14T19:26:28.458Z,100629.25
2023-04-14T19:28:55.885Z,100598.56
2023-04-14T19:31:23.348Z,100577.53
2023-04-14T19:33:50.684Z,100558.56
2023-04-14T19:36:17.956Z,100503.94
2023-04-14T19:38:46.747Z,100477.59
2023-04-14T19:41:14.082Z,100454.38
2023-04-14T19:43:41.313Z,100413.63
2023-04-14T19:46:08.717Z,100379.22
2023-04-14T19:48:36.416Z,100366.13
2023-04-14T19:51:03.708Z,100313.66
2023-04-14T19:53:31.315Z,100281.28
2023-04-14T19:56:00.038Z,100267.16
2023-04-14T19:58:28.173Z,100252.97
2023-04-14T20:00:55.655Z,100215.66
2023-04-14T20:03:23.867Z,100219.47
2023-04-14T20:05:51.837Z,100207.63
2023-04-14T20:08:19.386Z,100181.50
2023-04-14T20:10:46.780Z,100175.22
2023-04-14T20:13:16.051Z,100154.97
2023-04-14T20:15:43.431Z,100152.41
2023-04-14T20:18:10.670Z,100136.50
2023-04-14T20:20:39.129Z,100127.84
2023-04-14T20:23:09.492Z,100122.88
2023-04-14T20:25:36.924Z,100118.66
2023-04-14T20:28:04.526Z,100112.16
2023-04-14T20:30:33.283Z,100111.69
2023-04-14T20:33:01.111Z,100095.16
2023-04-14T20:35:28.350Z,100104.88
2023-04-14T20:37:55.630Z,100100.59
2023-04-14T20:40:22.875Z,100101.50
2023-04-14T20:42:50.103Z,100093.75
2023-04-14T20:45:17.570Z,100107.59
2023-04-14T20:47:46.306Z,100099.84
2023-04-14T20:50:13.594Z,100101.06
2023-04-14T20:52:40.804Z,100081.72
2023-04-14T20:55:09.064Z,100074.16
2023-04-14T20:57:36.445Z,100080.44
2023-04-14T21:00:04.336Z,100083.91
2023-04-14T21:02:31.738Z,100072.78
2023-04-14T21:05:00.417Z,100062.31
2023-04-14T21:07:27.768Z,100074.22
2023-04-14T21:09:54.971Z,100066.84
2023-04-14T21:12:22.198Z,100063.72
2023-04-14T21:15:30.397Z,100063.22
2023-04-14T21:17:36.987Z,100058.69
2023-04-14T21:20:06.928Z,100057.44
2023-04-14T21:22:34.485Z,100059.25
2023-04-14T21:25:01.731Z,100047.81
2023-04-14T21:27:29.700Z,100060.47
2023-04-14T21:29:56.957Z,100075.88
2023-04-14T21:32:24.297Z,100075.22
2023-04-14T21:34:51.564Z,100067.44
2023-04-14T21:37:20.266Z,100074.97
2023-04-14T21:39:47.796Z,100068.88
2023-04-14T21:42:15.360Z,100068.09
2023-04-14T21:44:42.578Z,100068.47
2023-04-14T21:47:09.932Z,100064.47
2023-04-14T21:49:37.114Z,100052.78
2023-04-14T21:52:04.568Z,100049.63
2023-04-14T21:54:33.189Z,100043.97
2023-04-14T21:57:00.583Z,100034.53
2023-04-14T21:59:27.868Z,100026.31
2023-04-14T22:01:55.154Z,100020.22
2023-04-14T22:04:35.208Z,100017.69
2023-04-14T22:07:03.570Z,100011.44
2023-04-14T22:09:30.896Z,100005.66
2023-04-14T22:12:00.006Z,100001.22
2023-04-14T22:14:27.304Z,99990.69
2023-04-14T22:16:54.714Z,99990.25
2023-04-14T22:19:21.974Z,100001.16
2023-04-14T22:21:49.225Z,99990.38
2023-04-14T22:24:16.484Z,99988.59
2023-04-14T22:26:43.728Z,99974.75
2023-04-14T22:29:12.316Z,99963.22
2023-04-14T22:31:39.567Z,99953.09
2023-04-14T22:34:06.745Z,99940.09
2023-04-14T22:36:33.995Z,99931.69
2023-04-14T22:39:01.423Z,99923.72
2023-04-14T22:41:28.810Z,99907.72
2023-04-14T22:43:55.977Z,99899.28
2023-04-14T22:46:24.667Z,99881.88
2023-04-14T22:48:51.977Z,99874.66
2023-04-14T22:51:19.187Z,99870.00
2023-04-14T22:53:46.436Z,99865.47
2023-04-14T22:56:13.748Z,99854.50
2023-04-14T22:58:40.969Z,99857.16
2023-04-14T23:01:19.112Z,99845.97
2023-04-14T23:03:50.383Z,99840.06
2023-04-14T23:06:17.739Z,99842.84
2023-04-14T23:08:45.811Z,99829.19
2023-04-14T23:11:13.217Z,99828.88
2023-04-14T23:13:40.545Z,99825.22
2023-04-14T23:16:07.808Z,99817.91
2023-04-14T23:18:35.148Z,99816.91
2023-04-14T23:21:04.122Z,99816.69
2023-04-14T23:23:31.389Z,99813.47
2023-04-14T23:25:58.584Z,99822.00
2023-04-14T23:28:25.892Z,99819.22
2023-04-14T23:30:53.067Z,99816.34
2023-04-14T23:33:20.545Z,99809.81
2023-04-14T23:35:47.760Z,99806.03
2023-04-14T23:38:17.429Z,99804.28
2023-04-14T23:40:45.557Z,99806.81
2023-04-14T23:43:12.900Z,99807.38
2023-04-14T23:45:40.223Z,99804.72
2023-04-14T23:48:07.880Z,99804.28
2023-04-14T23:50:58.903Z,99799.19
2023-04-14T23:53:24.457Z,99798.19
2023-04-14T23:55:51.866Z,99791.63
2023-04-14T23:58:26.420Z,99783.75
